Time;durP1;ratioP1;P1;durP2;ratioP2;P2;SDS_P1;SDS_P2;PMS_P1;PMS_P2;Temp;Humidity;BMP_temperature;BMP_pressure;BME280_temperature;BME280_humidity;BME280_pressure;Samples;Min_cycle;Max_cycle;Signal;HPM_P1;HPM_P2
2021/12/09 00:00:31;;;;;;;4.50;2.60;;;;;;;;;;4499750;28;20034;-63
2021/12/09 00:02:42;;;;;;;4.38;2.70;;;;;;;;;;4483244;28;20019;-64
2021/12/09 00:04:55;;;;;;;4.95;2.70;;;;;;;;;;4500636;28;20018;-64
2021/12/09 00:07:05;;;;;;;3.88;2.67;;;;;;;;;;4481866;28;20433;-63
2021/12/09 00:09:18;;;;;;;4.83;2.73;;;;;;;;;;4499735;28;20068;-63
2021/12/09 00:11:29;;;;;;;4.15;2.70;;;;;;;;;;4465317;28;20027;-63
2021/12/09 00:13:40;;;;;;;3.58;2.40;;;;;;;;;;4482251;28;20023;-63
2021/12/09 00:15:50;;;;;;;3.30;2.30;;;;;;;;;;4500156;28;20026;-63
2021/12/09 00:18:01;;;;;;;3.27;2.33;;;;;;;;;;4482997;28;20505;-63
2021/12/09 00:20:13;;;;;;;3.07;2.20;;;;;;;;;;4499350;28;20018;-63
2021/12/09 00:22:25;;;;;;;4.40;2.42;;;;;;;;;;4499728;28;20050;-63
2021/12/09 00:24:35;;;;;;;4.57;2.40;;;;;;;;;;4499906;28;20025;-63
2021/12/09 00:26:46;;;;;;;5.10;2.67;;;;;;;;;;4500082;28;20033;-63
2021/12/09 00:28:56;;;;;;;3.83;2.47;;;;;;;;;;4498370;28;20560;-63
2021/12/09 00:31:07;;;;;;;4.13;2.13;;;;;;;;;;4482334;28;20141;-63
2021/12/09 00:33:17;;;;;;;2.50;1.93;;;;;;;;;;4499720;28;20026;-64
2021/12/09 00:35:33;;;;;;;3.83;2.10;;;;;;;;;;4500881;28;20030;-63
2021/12/09 00:37:56;;;;;;;4.13;2.45;;;;;;;;;;4483301;28;20049;-63
2021/12/09 00:40:08;;;;;;;3.85;2.40;;;;;;;;;;4466681;28;20780;-63
2021/12/09 00:42:23;;;;;;;4.78;2.35;;;;;;;;;;4481412;28;20042;-63
2021/12/09 00:44:33;;;;;;;3.30;2.20;;;;;;;;;;4465298;28;20033;-63
2021/12/09 00:46:44;;;;;;;3.43;2.10;;;;;;;;;;4500440;28;20024;-63
2021/12/09 00:48:54;;;;;;;3.67;2.37;;;;;;;;;;4482176;28;20398;-63
2021/12/09 00:51:06;;;;;;;3.17;2.10;;;;;;;;;;4481711;28;20030;-63
2021/12/09 00:53:16;;;;;;;3.92;2.28;;;;;;;;;;4490834;28;20030;-63
2021/12/09 00:55:27;;;;;;;4.37;2.57;;;;;;;;;;4500267;28;20029;-63
2021/12/09 00:57:39;;;;;;;3.88;2.13;;;;;;;;;;4482061;28;20097;-62
2021/12/09 00:59:50;;;;;;;3.88;2.13;;;;;;;;;;4482043;28;20038;-63
2021/12/09 01:02:00;;;;;;;3.83;2.53;;;;;;;;;;4483957;28;20407;-62
2021/12/09 01:04:11;;;;;;;4.40;2.43;;;;;;;;;;4482013;28;20485;-63
2021/12/09 01:06:21;;;;;;;3.77;2.30;;;;;;;;;;4481118;28;20584;-63
2021/12/09 01:08:32;;;;;;;4.57;2.43;;;;;;;;;;4481722;28;20033;-62
2021/12/09 01:10:42;;;;;;;4.07;2.70;;;;;;;;;;4499056;28;20026;-63
2021/12/09 01:12:53;;;;;;;3.73;2.30;;;;;;;;;;4480759;28;32126;-63
2021/12/09 01:15:06;;;;;;;5.23;2.93;;;;;;;;;;4482618;28;20030;-63
2021/12/09 01:17:16;;;;;;;4.95;2.53;;;;;;;;;;4499309;28;20512;-63
2021/12/09 01:19:27;;;;;;;3.40;2.57;;;;;;;;;;4482490;28;20609;-63
2021/12/09 01:21:37;;;;;;;5.43;2.97;;;;;;;;;;4481716;28;20025;-63
2021/12/09 01:23:48;;;;;;;3.90;2.60;;;;;;;;;;4498745;28;20424;-63
2021/12/09 01:26:02;;;;;;;4.03;2.43;;;;;;;;;;4503980;28;20018;-63
2021/12/09 01:28:20;;;;;;;3.38;2.40;;;;;;;;;;4485105;28;20030;-63
2021/12/09 01:30:30;;;;;;;3.67;2.30;;;;;;;;;;4502646;28;20577;-63
2021/12/09 01:32:48;;;;;;;3.90;2.40;;;;;;;;;;4502910;28;20022;-63
2021/12/09 01:34:58;;;;;;;3.25;2.20;;;;;;;;;;4502670;28;20030;-63
2021/12/09 01:37:09;;;;;;;3.33;1.97;;;;;;;;;;4502161;28;26121;-63
2021/12/09 01:39:20;;;;;;;2.90;2.20;;;;;;;;;;4502423;28;20120;-63
2021/12/09 01:41:31;;;;;;;3.55;2.35;;;;;;;;;;4503057;28;20030;-63
2021/12/09 01:43:41;;;;;;;3.10;2.20;;;;;;;;;;4484723;28;20030;-63
2021/12/09 01:46:09;;;;;;;3.17;2.13;;;;;;;;;;4503704;28;21646;-63
2021/12/09 01:48:20;;;;;;;3.67;2.30;;;;;;;;;;4498464;28;20127;-63
2021/12/09 01:50:32;;;;;;;3.93;2.40;;;;;;;;;;4501477;28;26792;-63
2021/12/09 01:52:43;;;;;;;3.13;2.20;;;;;;;;;;4502634;28;20026;-64
2021/12/09 01:54:54;;;;;;;3.60;2.22;;;;;;;;;;4484698;28;20030;-63
2021/12/09 01:57:06;;;;;;;3.00;1.97;;;;;;;;;;4502228;28;20026;-63
2021/12/09 01:59:17;;;;;;;3.67;2.10;;;;;;;;;;4484076;28;20092;-63
2021/12/09 02:01:28;;;;;;;2.77;2.07;;;;;;;;;;4484829;28;20031;-63
2021/12/09 02:03:38;;;;;;;3.33;2.00;;;;;;;;;;4502630;28;20257;-64
2021/12/09 02:05:49;;;;;;;4.07;2.40;;;;;;;;;;4502351;28;20022;-63
2021/12/09 02:07:59;;;;;;;2.87;2.00;;;;;;;;;;4502050;28;20026;-63
2021/12/09 02:10:15;;;;;;;3.80;2.10;;;;;;;;;;4503024;28;20098;-63
2021/12/09 02:12:26;;;;;;;3.97;2.20;;;;;;;;;;4503410;28;20041;-63
2021/12/09 02:14:41;;;;;;;4.13;2.40;;;;;;;;;;4485164;28;20033;-63
2021/12/09 02:16:51;;;;;;;2.65;1.90;;;;;;;;;;4503116;28;20020;-63
2021/12/09 02:19:03;;;;;;;3.03;2.10;;;;;;;;;;4503085;28;20034;-63
2021/12/09 02:21:22;;;;;;;3.35;1.92;;;;;;;;;;4503153;28;20022;-63
2021/12/09 02:23:33;;;;;;;3.67;1.83;;;;;;;;;;4502806;28;20056;-63
2021/12/09 02:25:45;;;;;;;3.17;1.95;;;;;;;;;;4503968;28;20049;-63
2021/12/09 02:27:55;;;;;;;2.15;1.58;;;;;;;;;;4485965;28;20887;-63
2021/12/09 02:30:06;;;;;;;2.97;1.67;;;;;;;;;;4502651;28;23539;-63
2021/12/09 02:32:17;;;;;;;4.03;1.90;;;;;;;;;;4485636;28;20109;-63
2021/12/09 02:34:28;;;;;;;3.40;2.00;;;;;;;;;;4485951;28;20046;-63
2021/12/09 02:36:42;;;;;;;3.13;1.70;;;;;;;;;;4487734;28;20046;-63
2021/12/09 02:38:53;;;;;;;3.35;1.60;;;;;;;;;;4485415;28;20049;-63
2021/12/09 02:41:05;;;;;;;2.72;1.80;;;;;;;;;;4502883;28;20564;-63
2021/12/09 02:43:25;;;;;;;3.33;1.90;;;;;;;;;;4484662;28;21003;-62
2021/12/09 02:45:36;;;;;;;2.60;1.70;;;;;;;;;;4502964;28;20033;-62
2021/12/09 02:47:47;;;;;;;3.35;1.77;;;;;;;;;;4485584;28;20041;-63
2021/12/09 02:49:57;;;;;;;3.33;1.80;;;;;;;;;;4502698;28;20037;-62
2021/12/09 02:52:08;;;;;;;2.73;1.87;;;;;;;;;;4468613;28;20030;-63
2021/12/09 02:54:20;;;;;;;1.80;1.60;;;;;;;;;;4484959;28;20034;-63
2021/12/09 02:56:30;;;;;;;2.80;1.50;;;;;;;;;;4484723;28;20041;-63
2021/12/09 02:58:41;;;;;;;2.70;1.60;;;;;;;;;;4484467;28;20426;-63
2021/12/09 03:01:04;;;;;;;3.73;1.80;;;;;;;;;;4502673;28;20030;-63
2021/12/09 03:03:14;;;;;;;2.08;1.45;;;;;;;;;;4502715;28;20065;-63
2021/12/09 03:05:26;;;;;;;2.73;1.60;;;;;;;;;;4486270;28;21169;-63
2021/12/09 03:07:39;;;;;;;2.28;1.50;;;;;;;;;;4495005;28;20648;-63
2021/12/09 03:09:54;;;;;;;3.72;1.70;;;;;;;;;;4502311;28;20052;-63
2021/12/09 03:12:12;;;;;;;2.63;1.77;;;;;;;;;;4502775;28;20044;-63
2021/12/09 03:14:23;;;;;;;2.90;1.85;;;;;;;;;;4484832;28;20150;-63
2021/12/09 03:16:34;;;;;;;2.53;1.70;;;;;;;;;;4502208;28;20065;-63
2021/12/09 03:18:48;;;;;;;3.87;1.57;;;;;;;;;;4485519;28;20133;-62
2021/12/09 03:20:58;;;;;;;2.63;1.70;;;;;;;;;;4484476;28;20561;-63
2021/12/09 03:23:08;;;;;;;3.00;1.50;;;;;;;;;;4502841;28;20030;-63
2021/12/09 03:25:19;;;;;;;2.63;1.60;;;;;;;;;;4502173;28;28611;-63
2021/12/09 03:27:30;;;;;;;2.53;1.67;;;;;;;;;;4484818;28;20030;-63
2021/12/09 03:29:40;;;;;;;2.63;1.70;;;;;;;;;;4502128;28;20596;-63
2021/12/09 03:31:52;;;;;;;3.20;1.73;;;;;;;;;;4483907;28;25708;-63
2021/12/09 03:34:03;;;;;;;3.22;1.75;;;;;;;;;;4484014;28;20541;-63
2021/12/09 03:36:14;;;;;;;2.95;1.90;;;;;;;;;;4484354;28;20594;-63
2021/12/09 03:38:25;;;;;;;3.47;1.63;;;;;;;;;;4501508;28;20064;-63
2021/12/09 03:40:36;;;;;;;4.47;1.70;;;;;;;;;;4499249;28;20037;-62
2021/12/09 03:42:46;;;;;;;2.53;1.77;;;;;;;;;;4502109;28;20489;-63
2021/12/09 03:44:58;;;;;;;2.40;1.70;;;;;;;;;;4502033;28;20041;-63
2021/12/09 03:47:11;;;;;;;2.60;1.90;;;;;;;;;;4483279;28;20127;-63
2021/12/09 03:49:23;;;;;;;2.83;1.73;;;;;;;;;;4484347;28;20046;-63
2021/12/09 03:51:35;;;;;;;3.15;1.80;;;;;;;;;;4501910;28;20504;-63
2021/12/09 03:53:45;;;;;;;3.28;1.80;;;;;;;;;;4484421;28;20647;-63
2021/12/09 03:55:56;;;;;;;3.33;1.80;;;;;;;;;;4502128;28;20116;-63
2021/12/09 03:58:07;;;;;;;2.30;1.95;;;;;;;;;;4501805;28;20037;-63
2021/12/09 04:00:18;;;;;;;2.60;1.93;;;;;;;;;;4483462;28;20042;-63
2021/12/09 04:02:28;;;;;;;3.43;2.10;;;;;;;;;;4484146;28;20030;-63
2021/12/09 04:04:39;;;;;;;2.70;1.60;;;;;;;;;;4501464;28;20509;-63
2021/12/09 04:06:49;;;;;;;2.07;1.60;;;;;;;;;;4483225;28;20110;-63
2021/12/09 04:09:01;;;;;;;2.17;1.77;;;;;;;;;;4483665;28;20034;-63
2021/12/09 04:11:11;;;;;;;2.22;1.63;;;;;;;;;;4501457;28;20037;-63
2021/12/09 04:13:22;;;;;;;3.43;1.93;;;;;;;;;;4502071;28;20489;-63
2021/12/09 04:15:32;;;;;;;2.97;1.63;;;;;;;;;;4501263;28;29093;-63
2021/12/09 04:17:43;;;;;;;3.33;1.60;;;;;;;;;;4501535;28;20042;-63
2021/12/09 04:19:53;;;;;;;3.03;1.70;;;;;;;;;;4501478;28;20405;-63
2021/12/09 04:22:04;;;;;;;3.27;1.73;;;;;;;;;;4501652;28;20033;-63
2021/12/09 04:24:15;;;;;;;2.10;1.63;;;;;;;;;;4501808;28;20042;-63
2021/12/09 04:26:26;;;;;;;2.88;1.77;;;;;;;;;;4483148;28;20031;-63
2021/12/09 04:28:38;;;;;;;2.37;1.63;;;;;;;;;;4500004;28;20042;-63
2021/12/09 04:30:48;;;;;;;3.15;1.80;;;;;;;;;;4482909;28;20089;-63
2021/12/09 04:32:59;;;;;;;3.17;1.80;;;;;;;;;;4501821;28;20041;-63
2021/12/09 04:35:10;;;;;;;2.40;1.43;;;;;;;;;;4484315;28;20093;-63
2021/12/09 04:37:21;;;;;;;2.70;1.65;;;;;;;;;;4482827;28;20035;-63
2021/12/09 04:39:31;;;;;;;3.93;1.73;;;;;;;;;;4483378;28;20420;-63
2021/12/09 04:41:42;;;;;;;2.17;1.60;;;;;;;;;;4501409;28;20065;-63
2021/12/09 04:43:53;;;;;;;2.03;1.60;;;;;;;;;;4501165;28;20077;-63
2021/12/09 04:46:03;;;;;;;2.93;1.77;;;;;;;;;;4482989;28;20133;-63
2021/12/09 04:48:14;;;;;;;2.13;1.43;;;;;;;;;;4483196;28;20034;-63
2021/12/09 04:50:24;;;;;;;3.33;1.60;;;;;;;;;;4501055;28;20034;-63
2021/12/09 04:52:35;;;;;;;1.87;1.47;;;;;;;;;;4486392;28;20030;-63
2021/12/09 04:54:45;;;;;;;3.07;1.50;;;;;;;;;;4484168;28;20046;-63
2021/12/09 04:56:56;;;;;;;2.03;1.40;;;;;;;;;;4483452;28;20398;-63
2021/12/09 04:59:06;;;;;;;2.10;1.60;;;;;;;;;;4501750;28;20038;-63
2021/12/09 05:01:18;;;;;;;2.37;1.50;;;;;;;;;;4486553;28;20046;-63
2021/12/09 05:03:28;;;;;;;2.85;1.60;;;;;;;;;;4504082;28;20108;-63
2021/12/09 05:05:48;;;;;;;2.47;1.47;;;;;;;;;;4503820;28;20105;-63
2021/12/09 05:07:59;;;;;;;2.47;1.70;;;;;;;;;;4503941;28;20037;-63
2021/12/09 05:10:09;;;;;;;1.98;1.50;;;;;;;;;;4486612;28;20110;-63
2021/12/09 05:12:21;;;;;;;2.23;1.70;;;;;;;;;;4486279;28;20038;-63
2021/12/09 05:14:31;;;;;;;;;;;;;;;;;;4473656;28;20750;-63
2021/12/09 05:16:43;;;;;;;3.33;1.65;;;;;;;;;;4502854;28;19963;-63
2021/12/09 05:18:58;;;;;;;2.75;1.85;;;;;;;;;;4504316;28;20164;-63
2021/12/09 05:21:11;;;;;;;4.35;2.00;;;;;;;;;;4503440;28;20100;-63
2021/12/09 05:23:23;;;;;;;2.70;1.80;;;;;;;;;;4486802;28;20612;-63
2021/12/09 05:25:33;;;;;;;3.05;1.80;;;;;;;;;;4503088;28;20030;-63
2021/12/09 05:27:44;;;;;;;1.93;1.50;;;;;;;;;;4486002;28;20046;-63
2021/12/09 05:30:04;;;;;;;2.30;1.70;;;;;;;;;;4503229;28;20045;-63
2021/12/09 05:32:17;;;;;;;3.15;1.67;;;;;;;;;;4503498;28;20042;-62
2021/12/09 05:34:28;;;;;;;3.03;1.58;;;;;;;;;;4504202;28;20063;-63
2021/12/09 05:36:38;;;;;;;2.63;1.70;;;;;;;;;;4486129;28;20332;-64
2021/12/09 05:38:49;;;;;;;3.07;1.80;;;;;;;;;;4503075;28;20125;-63
2021/12/09 05:40:59;;;;;;;3.03;2.07;;;;;;;;;;4503526;28;20088;-63
2021/12/09 05:43:10;;;;;;;3.27;2.07;;;;;;;;;;4503782;28;20078;-63
2021/12/09 05:45:20;;;;;;;4.37;2.33;;;;;;;;;;4486187;28;20034;-63
2021/12/09 05:47:31;;;;;;;3.70;2.40;;;;;;;;;;4488940;28;20042;-63
2021/12/09 05:49:45;;;;;;;3.75;2.42;;;;;;;;;;4485166;28;20045;-63
2021/12/09 05:51:55;;;;;;;4.18;2.40;;;;;;;;;;4485632;28;20541;-63
2021/12/09 05:54:06;;;;;;;3.07;2.20;;;;;;;;;;4503416;28;20046;-63
2021/12/09 05:56:16;;;;;;;3.13;2.10;;;;;;;;;;4503044;28;20026;-64
2021/12/09 05:58:27;;;;;;;2.93;1.70;;;;;;;;;;4503398;28;20081;-63
2021/12/09 06:00:37;;;;;;;6.77;3.50;;;;;;;;;;4503475;28;20132;-63
2021/12/09 06:02:48;;;;;;;11.67;7.13;;;;;;;;;;4485629;28;20030;-63
2021/12/09 06:04:58;;;;;;;10.77;7.67;;;;;;;;;;4503570;28;20037;-63
2021/12/09 06:07:09;;;;;;;12.97;8.60;;;;;;;;;;4503002;28;21141;-63
2021/12/09 06:09:19;;;;;;;12.37;9.07;;;;;;;;;;4503291;28;20484;-63
2021/12/09 06:11:30;;;;;;;13.23;9.17;;;;;;;;;;4502698;28;20042;-63
2021/12/09 06:13:41;;;;;;;14.40;10.03;;;;;;;;;;4504545;28;20038;-63
2021/12/09 06:15:51;;;;;;;10.30;7.40;;;;;;;;;;4504702;28;20549;-63
2021/12/09 06:18:03;;;;;;;8.07;4.67;;;;;;;;;;4484532;28;20046;-63
2021/12/09 06:20:14;;;;;;;6.18;3.92;;;;;;;;;;4502500;28;20587;-63
2021/12/09 06:22:24;;;;;;;3.93;2.33;;;;;;;;;;4485964;28;20039;-63
2021/12/09 06:24:35;;;;;;;3.13;1.80;;;;;;;;;;4502491;28;20862;-63
2021/12/09 06:26:45;;;;;;;3.90;1.80;;;;;;;;;;4503150;28;20034;-63
2021/12/09 06:28:56;;;;;;;3.40;1.47;;;;;;;;;;4502603;28;20125;-63
2021/12/09 06:31:07;;;;;;;2.60;1.37;;;;;;;;;;4485146;28;20364;-63
2021/12/09 06:33:17;;;;;;;3.23;1.40;;;;;;;;;;4485328;28;20118;-63
2021/12/09 06:35:28;;;;;;;3.27;1.53;;;;;;;;;;4502268;28;20038;-63
2021/12/09 06:37:43;;;;;;;2.87;1.30;;;;;;;;;;4502762;28;20034;-63
2021/12/09 06:39:53;;;;;;;2.47;1.50;;;;;;;;;;4468906;28;20107;-63
2021/12/09 06:42:04;;;;;;;2.43;1.50;;;;;;;;;;4503101;28;20145;-63
2021/12/09 06:44:14;;;;;;;2.30;1.47;;;;;;;;;;4503296;28;20111;-63
2021/12/09 06:46:25;;;;;;;3.47;1.47;;;;;;;;;;4502935;28;20045;-63
2021/12/09 06:48:36;;;;;;;3.63;1.70;;;;;;;;;;4502572;28;20030;-63
2021/12/09 06:50:47;;;;;;;2.70;1.48;;;;;;;;;;4502222;28;20034;-63
2021/12/09 06:52:58;;;;;;;2.70;1.63;;;;;;;;;;4486016;28;20933;-63
2021/12/09 06:55:12;;;;;;;2.67;1.67;;;;;;;;;;4487717;28;20348;-62
2021/12/09 06:57:23;;;;;;;3.35;1.70;;;;;;;;;;4494436;28;20046;-63
2021/12/09 06:59:33;;;;;;;2.70;1.40;;;;;;;;;;4502860;28;20042;-63
2021/12/09 07:01:44;;;;;;;3.80;1.80;;;;;;;;;;4503024;28;20034;-63
2021/12/09 07:03:54;;;;;;;3.77;1.80;;;;;;;;;;4502643;28;20033;-63
2021/12/09 07:06:06;;;;;;;3.93;1.77;;;;;;;;;;4484864;28;20049;-63
2021/12/09 07:08:18;;;;;;;3.40;1.75;;;;;;;;;;4484563;28;21157;-63
2021/12/09 07:10:28;;;;;;;2.22;1.50;;;;;;;;;;4493486;28;20739;-63
2021/12/09 07:12:39;;;;;;;2.30;1.70;;;;;;;;;;4483749;28;20038;-63
2021/12/09 07:14:49;;;;;;;8.20;4.40;;;;;;;;;;4497998;28;20034;-63
2021/12/09 07:17:00;;;;;;;9.07;4.97;;;;;;;;;;4483635;28;20648;-63
2021/12/09 07:19:10;;;;;;;6.17;3.43;;;;;;;;;;4485112;28;20069;-63
2021/12/09 07:21:21;;;;;;;4.17;2.03;;;;;;;;;;4501189;28;20036;-62
2021/12/09 07:23:32;;;;;;;5.43;2.47;;;;;;;;;;4501675;28;20042;-63
2021/12/09 07:25:42;;;;;;;4.77;2.03;;;;;;;;;;4502131;28;20033;-63
2021/12/09 07:27:53;;;;;;;1.97;1.33;;;;;;;;;;4499927;28;20046;-63
2021/12/09 07:30:05;;;;;;;3.42;1.80;;;;;;;;;;4485594;28;20042;-64
2021/12/09 07:32:16;;;;;;;4.03;1.80;;;;;;;;;;4466837;28;20039;-63
2021/12/09 07:34:26;;;;;;;2.40;1.50;;;;;;;;;;4492432;28;20043;-63
2021/12/09 07:36:37;;;;;;;3.03;1.87;;;;;;;;;;4500750;28;20474;-63
2021/12/09 07:38:48;;;;;;;2.93;1.77;;;;;;;;;;4483413;28;20038;-63
2021/12/09 07:40:58;;;;;;;4.37;1.93;;;;;;;;;;4500797;28;20045;-63
2021/12/09 07:43:09;;;;;;;4.03;1.90;;;;;;;;;;4483166;28;20308;-63
2021/12/09 07:45:19;;;;;;;2.33;1.50;;;;;;;;;;4483691;28;20707;-65
2021/12/09 07:47:30;;;;;;;2.40;1.40;;;;;;;;;;4475148;28;20045;-63
2021/12/09 07:49:40;;;;;;;2.23;1.53;;;;;;;;;;4466324;28;20023;-63
2021/12/09 07:51:52;;;;;;;2.10;1.60;;;;;;;;;;4501413;28;20038;-63
2021/12/09 07:54:02;;;;;;;2.53;1.60;;;;;;;;;;4482242;28;20584;-63
2021/12/09 07:56:13;;;;;;;4.90;2.30;;;;;;;;;;4482290;28;20034;-63
2021/12/09 07:58:23;;;;;;;4.07;2.30;;;;;;;;;;4481644;28;20282;-63
2021/12/09 08:00:34;;;;;;;3.57;2.00;;;;;;;;;;4498515;28;20587;-63
2021/12/09 08:02:47;;;;;;;3.03;1.90;;;;;;;;;;4485906;28;20038;-63
2021/12/09 08:04:57;;;;;;;3.33;1.92;;;;;;;;;;4494261;28;20596;-63
2021/12/09 08:07:08;;;;;;;2.10;1.30;;;;;;;;;;4500186;28;20034;-63
2021/12/09 08:09:18;;;;;;;2.50;1.47;;;;;;;;;;4499567;28;20030;-64
2021/12/09 08:11:28;;;;;;;2.17;1.60;;;;;;;;;;4500469;28;20068;-63
2021/12/09 08:13:39;;;;;;;2.30;1.50;;;;;;;;;;4500551;28;20030;-63
2021/12/09 08:15:51;;;;;;;3.00;1.50;;;;;;;;;;4481801;28;20052;-63
2021/12/09 08:18:25;;;;;;;2.50;1.65;;;;;;;;;;4500149;28;20038;-64
2021/12/09 08:20:33;;;;;;;5.00;1.70;;;;;;;;;;4499752;28;20064;-63
2021/12/09 08:22:45;;;;;;;1.47;1.10;;;;;;;;;;4500125;28;20120;-63
2021/12/09 08:24:56;;;;;;;2.17;1.50;;;;;;;;;;4500951;28;20120;-64
2021/12/09 08:27:06;;;;;;;3.45;1.67;;;;;;;;;;4500422;28;20607;-63
2021/12/09 08:29:17;;;;;;;2.07;1.30;;;;;;;;;;4473988;28;20086;-63
2021/12/09 08:31:29;;;;;;;2.90;1.50;;;;;;;;;;4501330;28;20093;-64
2021/12/09 08:33:40;;;;;;;1.75;1.33;;;;;;;;;;4500750;28;21343;-63
2021/12/09 08:35:51;;;;;;;3.73;1.40;;;;;;;;;;4482796;28;20042;-63
2021/12/09 08:38:03;;;;;;;1.52;1.33;;;;;;;;;;4492611;28;20042;-63
2021/12/09 08:40:15;;;;;;;1.83;1.35;;;;;;;;;;4482042;28;20652;-64
2021/12/09 08:42:25;;;;;;;3.17;1.80;;;;;;;;;;4482020;28;20038;-64
2021/12/09 08:44:36;;;;;;;2.13;1.30;;;;;;;;;;4483073;28;20042;-64
2021/12/09 08:46:47;;;;;;;2.83;1.53;;;;;;;;;;4483182;28;20103;-66
2021/12/09 08:48:57;;;;;;;2.97;1.53;;;;;;;;;;4484161;28;20082;-65
2021/12/09 08:51:08;;;;;;;3.53;1.83;;;;;;;;;;4500203;28;20432;-67
2021/12/09 08:53:22;;;;;;;3.45;1.75;;;;;;;;;;4501136;28;20026;-65
2021/12/09 08:55:32;;;;;;;2.38;1.67;;;;;;;;;;4501617;28;20090;-65
2021/12/09 08:57:43;;;;;;;2.43;1.80;;;;;;;;;;4500856;28;20038;-65
2021/12/09 08:59:54;;;;;;;3.03;1.83;;;;;;;;;;4500110;28;20612;-65
2021/12/09 09:02:05;;;;;;;5.03;2.00;;;;;;;;;;4500821;28;20040;-65
2021/12/09 09:04:15;;;;;;;3.97;1.95;;;;;;;;;;4482737;28;20477;-65
2021/12/09 09:06:26;;;;;;;5.07;2.43;;;;;;;;;;4469117;28;20047;-65
2021/12/09 09:08:36;;;;;;;4.17;2.27;;;;;;;;;;4501058;28;20100;-66
2021/12/09 09:10:47;;;;;;;5.60;3.13;;;;;;;;;;4482082;28;20049;-65
2021/12/09 09:12:57;;;;;;;6.23;3.07;;;;;;;;;;4500437;28;20030;-65
2021/12/09 09:15:11;;;;;;;4.17;2.73;;;;;;;;;;4500475;28;20560;-65
2021/12/09 09:17:21;;;;;;;4.25;2.38;;;;;;;;;;4499573;28;20608;-65
2021/12/09 09:19:32;;;;;;;4.47;2.77;;;;;;;;;;4499087;28;25552;-66
2021/12/09 09:21:42;;;;;;;6.37;3.70;;;;;;;;;;4481671;28;20046;-65
2021/12/09 09:23:52;;;;;;;4.93;2.40;;;;;;;;;;4499880;28;20096;-65
2021/12/09 09:26:03;;;;;;;5.03;2.50;;;;;;;;;;4500355;28;20506;-65
2021/12/09 09:28:14;;;;;;;3.70;1.97;;;;;;;;;;4482637;28;20049;-66
2021/12/09 09:30:33;;;;;;;6.10;3.20;;;;;;;;;;4481646;28;20124;-65
2021/12/09 09:32:46;;;;;;;4.05;2.00;;;;;;;;;;4492745;28;20034;-65
2021/12/09 09:34:56;;;;;;;5.40;2.38;;;;;;;;;;4500131;28;20113;-65
2021/12/09 09:37:07;;;;;;;5.17;1.90;;;;;;;;;;4482961;28;20046;-65
2021/12/09 09:39:19;;;;;;;4.50;2.15;;;;;;;;;;4499936;28;20868;-66
2021/12/09 09:41:33;;;;;;;5.63;2.20;;;;;;;;;;4499324;28;20045;-66
2021/12/09 09:46:00;;;;;;;5.40;2.67;;;;;;;;;;4484475;28;20113;-65
2021/12/09 09:48:13;;;;;;;6.47;2.85;;;;;;;;;;4486131;28;20042;-65
2021/12/09 09:50:24;;;;;;;4.28;1.92;;;;;;;;;;4483863;28;20034;-65
2021/12/09 09:52:35;;;;;;;;;;;;;;;;;;4503166;28;20045;-65
2021/12/09 09:54:45;;;;;;;5.18;2.03;;;;;;;;;;4484884;28;19925;-65
2021/12/09 09:56:56;;;;;;;4.35;2.10;;;;;;;;;;4502956;28;20044;-65
2021/12/09 09:59:09;;;;;;;5.17;2.10;;;;;;;;;;4502053;28;20164;-65
2021/12/09 10:01:21;;;;;;;5.95;2.40;;;;;;;;;;4502127;28;20038;-65
2021/12/09 10:03:40;;;;;;;5.72;2.67;;;;;;;;;;4488507;28;20125;-65
2021/12/09 10:05:50;;;;;;;5.53;2.45;;;;;;;;;;4499209;28;20034;-65
2021/12/09 10:08:01;;;;;;;5.37;2.47;;;;;;;;;;4486584;28;20039;-65
2021/12/09 10:10:12;;;;;;;2.97;1.77;;;;;;;;;;4483308;28;20069;-65
2021/12/09 10:12:22;;;;;;;7.60;2.73;;;;;;;;;;4484251;28;20030;-65
2021/12/09 10:14:35;;;;;;;3.70;1.83;;;;;;;;;;4502199;28;20078;-65
2021/12/09 10:16:47;;;;;;;5.43;2.42;;;;;;;;;;4498587;28;20034;-65
2021/12/09 10:18:58;;;;;;;4.72;2.17;;;;;;;;;;4466682;28;20078;-65
2021/12/09 10:21:11;;;;;;;7.00;2.80;;;;;;;;;;4502834;28;20134;-65
2021/12/09 10:23:29;;;;;;;4.90;2.28;;;;;;;;;;4501743;28;20116;-65
2021/12/09 10:25:40;;;;;;;5.30;2.40;;;;;;;;;;4501802;28;20037;-65
2021/12/09 10:28:01;;;;;;;5.77;2.47;;;;;;;;;;4483809;28;20066;-64
2021/12/09 10:30:18;;;;;;;4.57;2.28;;;;;;;;;;4501243;28;20041;-65
2021/12/09 10:32:33;;;;;;;5.05;2.40;;;;;;;;;;4502189;28;21009;-65
2021/12/09 10:34:46;;;;;;;5.65;2.10;;;;;;;;;;4502139;28;20053;-65
2021/12/09 10:37:01;;;;;;;3.25;1.65;;;;;;;;;;4497627;28;20699;-65
2021/12/09 10:39:15;;;;;;;3.70;1.60;;;;;;;;;;4483348;28;20186;-65
2021/12/09 10:41:33;;;;;;;5.38;1.98;;;;;;;;;;4501023;28;20049;-65
2021/12/09 10:43:50;;;;;;;5.72;3.08;;;;;;;;;;4484244;28;20354;-65
2021/12/09 10:46:01;;;;;;;5.72;2.88;;;;;;;;;;4501311;28;20129;-65
2021/12/09 10:53:46;;;;;;;4.93;1.92;;;;;;;;;;4501743;28;20599;-63
2021/12/09 10:55:43;;;;;;;6.10;2.63;;;;;;;;;;4500282;28;20050;-63
2021/12/09 10:58:04;;;;;;;4.53;2.30;;;;;;;;;;4502235;28;20050;-63
2021/12/09 11:00:17;;;;;;;5.05;2.13;;;;;;;;;;4502067;28;20037;-63
2021/12/09 11:02:27;;;;;;;5.82;2.08;;;;;;;;;;4502532;28;20209;-62
2021/12/09 11:04:38;;;;;;;3.60;2.07;;;;;;;;;;4467930;28;20160;-63
2021/12/09 11:06:48;;;;;;;6.13;2.20;;;;;;;;;;4502826;28;20038;-62
2021/12/09 11:09:00;;;;;;;4.17;1.90;;;;;;;;;;4501494;28;20040;-64
2021/12/09 11:11:12;;;;;;;5.53;2.20;;;;;;;;;;4486344;28;20046;-63
2021/12/09 11:13:23;;;;;;;5.45;2.10;;;;;;;;;;4501843;28;20036;-64
2021/12/09 11:15:54;;;;;;;4.87;2.40;;;;;;;;;;4501778;28;20038;-62
2021/12/09 11:18:32;;;;;;;6.28;2.20;;;;;;;;;;4483635;28;20050;-61
2021/12/09 11:20:45;;;;;;;5.68;2.33;;;;;;;;;;4501256;28;20034;-61
2021/12/09 11:22:56;;;;;;;6.03;2.20;;;;;;;;;;4501034;28;20616;-62
2021/12/09 11:25:30;;;;;;;4.73;1.60;;;;;;;;;;4501702;28;20068;-64
2021/12/09 11:27:42;;;;;;;4.72;2.15;;;;;;;;;;4483812;28;20136;-62
2021/12/09 11:29:57;;;;;;;3.03;1.73;;;;;;;;;;4501590;28;20041;-64
2021/12/09 11:32:20;;;;;;;4.15;1.80;;;;;;;;;;4483698;28;20553;-64
2021/12/09 11:34:44;;;;;;;4.50;2.30;;;;;;;;;;4501387;28;20044;-62
2021/12/09 11:37:05;;;;;;;4.43;1.95;;;;;;;;;;4467571;28;20681;-62
2021/12/09 11:39:23;;;;;;;3.45;1.60;;;;;;;;;;4485790;28;20133;-62
2021/12/09 11:41:37;;;;;;;4.43;1.40;;;;;;;;;;4501236;28;20627;-63
2021/12/09 11:43:47;;;;;;;4.47;1.63;;;;;;;;;;4501017;28;20080;-63
2021/12/09 11:45:59;;;;;;;2.70;1.50;;;;;;;;;;4501225;28;20451;-63
2021/12/09 11:48:11;;;;;;;4.25;1.33;;;;;;;;;;4500212;28;20030;-63
2021/12/09 11:50:25;;;;;;;3.45;1.38;;;;;;;;;;4501156;28;20505;-63
2021/12/09 11:52:38;;;;;;;3.65;1.15;;;;;;;;;;4494550;28;20041;-64
2021/12/09 11:55:02;;;;;;;3.65;1.50;;;;;;;;;;4482632;28;20050;-62
2021/12/09 11:57:30;;;;;;;4.38;1.60;;;;;;;;;;4499983;28;20033;-66
2021/12/09 12:06:39;;;;;;;4.70;1.42;;;;;;;;;;4467654;28;20039;-64
2021/12/09 12:08:01;;;;;;;3.90;1.48;;;;;;;;;;4499842;28;20038;-62
2021/12/09 12:13:02;;;;;;;4.55;1.20;;;;;;;;;;4501600;28;20588;-63
2021/12/09 12:15:23;;;;;;;2.15;1.08;;;;;;;;;;4484662;28;20087;-62
2021/12/09 12:20:40;;;;;;;2.88;1.30;;;;;;;;;;4499920;28;20026;-62
2021/12/09 12:25:44;;;;;;;2.78;1.10;;;;;;;;;;4484155;28;20038;-63
2021/12/09 12:28:19;;;;;;;3.83;1.33;;;;;;;;;;4500185;28;20074;-64
2021/12/09 12:31:07;;;;;;;3.33;1.30;;;;;;;;;;4483355;28;20554;-64
2021/12/09 12:33:28;;;;;;;4.40;1.35;;;;;;;;;;4500458;28;20066;-64
2021/12/09 12:36:01;;;;;;;5.03;1.30;;;;;;;;;;4499786;28;20176;-64
2021/12/09 12:40:54;;;;;;;3.65;1.10;;;;;;;;;;4483629;28;20035;-64
2021/12/09 12:43:18;;;;;;;3.47;1.40;;;;;;;;;;4500089;28;20045;-65
2021/12/09 12:48:17;;;;;;;2.25;1.10;;;;;;;;;;4500861;28;20045;-66
2021/12/09 12:50:27;;;;;;;3.58;1.23;;;;;;;;;;4499621;28;20038;-65
2021/12/09 12:52:39;;;;;;;2.43;1.20;;;;;;;;;;4500202;28;20034;-65
2021/12/09 12:54:56;;;;;;;3.95;1.15;;;;;;;;;;4499254;28;20197;-65
2021/12/09 12:57:17;;;;;;;2.75;1.20;;;;;;;;;;4500337;28;20030;-65
2021/12/09 12:59:32;;;;;;;3.67;1.10;;;;;;;;;;4500220;28;20565;-66
2021/12/09 13:02:00;;;;;;;1.83;1.05;;;;;;;;;;4499456;28;21390;-66
2021/12/09 13:04:27;;;;;;;2.15;1.13;;;;;;;;;;4482075;28;20034;-66
2021/12/09 13:06:42;;;;;;;3.55;1.40;;;;;;;;;;4483959;28;20042;-65
2021/12/09 13:09:16;;;;;;;4.40;1.40;;;;;;;;;;4483007;28;20094;-65
2021/12/09 13:11:40;;;;;;;4.18;1.23;;;;;;;;;;4500707;28;20104;-66
2021/12/09 13:18:48;;;;;;;2.85;1.00;;;;;;;;;;4499685;28;20675;-65
2021/12/09 13:20:58;;;;;;;2.90;0.98;;;;;;;;;;4501978;28;20541;-65
2021/12/09 13:23:11;;;;;;;2.73;1.20;;;;;;;;;;4503159;28;20038;-65
2021/12/09 13:25:29;;;;;;;3.22;1.50;;;;;;;;;;4504237;28;20696;-65
2021/12/09 13:35:13;;;;;;;2.08;1.05;;;;;;;;;;4483588;28;21445;-66
2021/12/09 13:37:37;;;;;;;1.77;1.13;;;;;;;;;;4502157;28;20030;-65
2021/12/09 13:47:25;;;;;;;1.83;1.00;;;;;;;;;;4501681;28;20722;-65
2021/12/09 13:49:54;;;;;;;2.95;1.10;;;;;;;;;;4501321;28;20177;-64
2021/12/09 13:54:54;;;;;;;3.88;2.40;;;;;;;;;;4467229;28;20053;-65
2021/12/09 13:57:06;;;;;;;3.25;1.60;;;;;;;;;;4502396;28;20084;-65
2021/12/09 13:59:18;;;;;;;2.00;1.38;;;;;;;;;;4497559;28;20187;-65
2021/12/09 14:01:29;;;;;;;3.42;1.52;;;;;;;;;;4501777;28;20133;-64
2021/12/09 14:03:39;;;;;;;4.13;1.53;;;;;;;;;;4501814;28;20164;-65
2021/12/09 14:06:03;;;;;;;3.50;2.00;;;;;;;;;;4500406;28;20045;-64